<?xml version="1.0" encoding="UTF-8" standalone="no" ?>
<gpx xmlns="http://www.topografix.com/GPX/1/1" xmlns:xsi="http://www.w3.org/2001/XMLSchema-instance" xsi:schemaLocation="http://www.topografix.com/GPX/1/1 http://www.topografix.com/GPX/1/1/gpx.xsd" version="1.1" creator="VisuGPX - https://www.visugpx.com">
  <metadata>
    <name>Les Sallèles - Le serre de Loutre</name>
    <desc><![CDATA[Une petite boucle au départ de la mairie des Sallèles]]></desc>
  </metadata>
  <trk>
    <name><![CDATA[14711416-Circuit 44 Serre de Loutre]]></name>
    <trkseg>
      <trkpt lat="44.43426" lon="4.10298">
        <ele>389</ele>
        <time>2022-09-19T10:46:12Z</time>
      </trkpt>
      <trkpt lat="44.43406" lon="4.10293">
        <ele>386</ele>
        <time>2022-09-19T10:46:28Z</time>
      </trkpt>
      <trkpt lat="44.43398" lon="4.10299">
        <ele>385</ele>
        <time>2022-09-19T10:46:36Z</time>
      </trkpt>
      <trkpt lat="44.43362" lon="4.10352">
        <ele>381</ele>
        <time>2022-09-19T10:47:17Z</time>
      </trkpt>
      <trkpt lat="44.43353" lon="4.10375">
        <ele>381</ele>
        <time>2022-09-19T10:47:32Z</time>
      </trkpt>
      <trkpt lat="44.43321" lon="4.1043">
        <ele>381</ele>
        <time>2022-09-19T10:48:13Z</time>
      </trkpt>
      <trkpt lat="44.4329" lon="4.10433">
        <ele>378</ele>
        <time>2022-09-19T10:48:38Z</time>
      </trkpt>
      <trkpt lat="44.4324" lon="4.10424">
        <ele>372</ele>
        <time>2022-09-19T10:49:18Z</time>
      </trkpt>
      <trkpt lat="44.43118" lon="4.1045">
        <ele>364</ele>
        <time>2022-09-19T10:50:57Z</time>
      </trkpt>
      <trkpt lat="44.43092" lon="4.1047">
        <ele>363</ele>
        <time>2022-09-19T10:51:21Z</time>
      </trkpt>
      <trkpt lat="44.43074" lon="4.10494">
        <ele>363</ele>
        <time>2022-09-19T10:51:41Z</time>
      </trkpt>
      <trkpt lat="44.4302" lon="4.10519">
        <ele>359</ele>
        <time>2022-09-19T10:52:26Z</time>
      </trkpt>
      <trkpt lat="44.43002" lon="4.10552">
        <ele>356</ele>
        <time>2022-09-19T10:52:50Z</time>
      </trkpt>
      <trkpt lat="44.43004" lon="4.10566">
        <ele>355</ele>
        <time>2022-09-19T10:52:58Z</time>
      </trkpt>
      <trkpt lat="44.43018" lon="4.10577">
        <ele>355</ele>
        <time>2022-09-19T10:53:11Z</time>
      </trkpt>
      <trkpt lat="44.43053" lon="4.10583">
        <ele>355</ele>
        <time>2022-09-19T10:53:39Z</time>
      </trkpt>
      <trkpt lat="44.43065" lon="4.1059">
        <ele>354</ele>
        <time>2022-09-19T10:53:50Z</time>
      </trkpt>
      <trkpt lat="44.43068" lon="4.10606">
        <ele>352</ele>
        <time>2022-09-19T10:53:59Z</time>
      </trkpt>
      <trkpt lat="44.43078" lon="4.10615">
        <ele>350</ele>
        <time>2022-09-19T10:54:09Z</time>
      </trkpt>
      <trkpt lat="44.43099" lon="4.10622">
        <ele>351</ele>
        <time>2022-09-19T10:54:26Z</time>
      </trkpt>
      <trkpt lat="44.43125" lon="4.10659">
        <ele>351</ele>
        <time>2022-09-19T10:54:55Z</time>
      </trkpt>
      <trkpt lat="44.4312" lon="4.10686">
        <ele>347</ele>
        <time>2022-09-19T10:55:11Z</time>
      </trkpt>
      <trkpt lat="44.43124" lon="4.10741">
        <ele>342</ele>
        <time>2022-09-19T10:55:43Z</time>
      </trkpt>
      <trkpt lat="44.43121" lon="4.10784">
        <ele>337</ele>
        <time>2022-09-19T10:56:08Z</time>
      </trkpt>
      <trkpt lat="44.43104" lon="4.10817">
        <ele>328</ele>
        <time>2022-09-19T10:56:31Z</time>
      </trkpt>
      <trkpt lat="44.43102" lon="4.10833">
        <ele>325</ele>
        <time>2022-09-19T10:56:40Z</time>
      </trkpt>
      <trkpt lat="44.43104" lon="4.10841">
        <ele>324</ele>
        <time>2022-09-19T10:56:45Z</time>
      </trkpt>
      <trkpt lat="44.43157" lon="4.10914">
        <ele>323</ele>
        <time>2022-09-19T10:57:45Z</time>
      </trkpt>
      <trkpt lat="44.43174" lon="4.1093">
        <ele>327</ele>
        <time>2022-09-19T10:58:01Z</time>
      </trkpt>
      <trkpt lat="44.4318" lon="4.1094">
        <ele>329</ele>
        <time>2022-09-19T10:58:09Z</time>
      </trkpt>
      <trkpt lat="44.4318" lon="4.10949">
        <ele>329</ele>
        <time>2022-09-19T10:58:14Z</time>
      </trkpt>
      <trkpt lat="44.43149" lon="4.10983">
        <ele>320</ele>
        <time>2022-09-19T10:58:45Z</time>
      </trkpt>
      <trkpt lat="44.43118" lon="4.10993">
        <ele>313</ele>
        <time>2022-09-19T10:59:11Z</time>
      </trkpt>
      <trkpt lat="44.43089" lon="4.10996">
        <ele>306</ele>
        <time>2022-09-19T10:59:34Z</time>
      </trkpt>
      <trkpt lat="44.43078" lon="4.11002">
        <ele>304</ele>
        <time>2022-09-19T10:59:43Z</time>
      </trkpt>
      <trkpt lat="44.43004" lon="4.11121">
        <ele>312</ele>
        <time>2022-09-19T11:01:14Z</time>
      </trkpt>
      <trkpt lat="44.4297" lon="4.11153">
        <ele>309</ele>
        <time>2022-09-19T11:01:46Z</time>
      </trkpt>
      <trkpt lat="44.42952" lon="4.11179">
        <ele>309</ele>
        <time>2022-09-19T11:02:07Z</time>
      </trkpt>
      <trkpt lat="44.42942" lon="4.11206">
        <ele>311</ele>
        <time>2022-09-19T11:02:25Z</time>
      </trkpt>
      <trkpt lat="44.42947" lon="4.11201">
        <ele>311</ele>
        <time>2022-09-19T11:02:29Z</time>
      </trkpt>
      <trkpt lat="44.42949" lon="4.11203">
        <ele>312</ele>
        <time>2022-09-19T11:02:31Z</time>
      </trkpt>
      <trkpt lat="44.42939" lon="4.11233">
        <ele>314</ele>
        <time>2022-09-19T11:02:50Z</time>
      </trkpt>
      <trkpt lat="44.42934" lon="4.11273">
        <ele>316</ele>
        <time>2022-09-19T11:03:14Z</time>
      </trkpt>
      <trkpt lat="44.42925" lon="4.11355">
        <ele>316</ele>
        <time>2022-09-19T11:04:01Z</time>
      </trkpt>
      <trkpt lat="44.42929" lon="4.11382">
        <ele>317</ele>
        <time>2022-09-19T11:04:17Z</time>
      </trkpt>
      <trkpt lat="44.42916" lon="4.11416">
        <ele>312</ele>
        <time>2022-09-19T11:04:39Z</time>
      </trkpt>
      <trkpt lat="44.42917" lon="4.11475">
        <ele>316</ele>
        <time>2022-09-19T11:05:13Z</time>
      </trkpt>
      <trkpt lat="44.42909" lon="4.11516">
        <ele>316</ele>
        <time>2022-09-19T11:05:37Z</time>
      </trkpt>
      <trkpt lat="44.4291" lon="4.11543">
        <ele>318</ele>
        <time>2022-09-19T11:05:52Z</time>
      </trkpt>
      <trkpt lat="44.42899" lon="4.11566">
        <ele>315</ele>
        <time>2022-09-19T11:06:08Z</time>
      </trkpt>
      <trkpt lat="44.42889" lon="4.1161">
        <ele>312</ele>
        <time>2022-09-19T11:06:35Z</time>
      </trkpt>
      <trkpt lat="44.4288" lon="4.11624">
        <ele>310</ele>
        <time>2022-09-19T11:06:45Z</time>
      </trkpt>
      <trkpt lat="44.42873" lon="4.11672">
        <ele>309</ele>
        <time>2022-09-19T11:07:13Z</time>
      </trkpt>
      <trkpt lat="44.4289" lon="4.117">
        <ele>308</ele>
        <time>2022-09-19T11:07:34Z</time>
      </trkpt>
      <trkpt lat="44.42932" lon="4.11711">
        <ele>310</ele>
        <time>2022-09-19T11:08:09Z</time>
      </trkpt>
      <trkpt lat="44.42952" lon="4.11731">
        <ele>310</ele>
        <time>2022-09-19T11:08:28Z</time>
      </trkpt>
      <trkpt lat="44.42958" lon="4.11747">
        <ele>309</ele>
        <time>2022-09-19T11:08:39Z</time>
      </trkpt>
      <trkpt lat="44.4295" lon="4.11786">
        <ele>306</ele>
        <time>2022-09-19T11:09:02Z</time>
      </trkpt>
      <trkpt lat="44.42956" lon="4.11825">
        <ele>304</ele>
        <time>2022-09-19T11:09:25Z</time>
      </trkpt>
      <trkpt lat="44.42953" lon="4.11884">
        <ele>305</ele>
        <time>2022-09-19T11:09:58Z</time>
      </trkpt>
      <trkpt lat="44.42957" lon="4.11905">
        <ele>306</ele>
        <time>2022-09-19T11:10:11Z</time>
      </trkpt>
      <trkpt lat="44.43011" lon="4.11932">
        <ele>322</ele>
        <time>2022-09-19T11:10:57Z</time>
      </trkpt>
      <trkpt lat="44.43018" lon="4.11942">
        <ele>323</ele>
        <time>2022-09-19T11:11:05Z</time>
      </trkpt>
      <trkpt lat="44.43013" lon="4.11978">
        <ele>323</ele>
        <time>2022-09-19T11:11:26Z</time>
      </trkpt>
      <trkpt lat="44.43018" lon="4.11999">
        <ele>324</ele>
        <time>2022-09-19T11:11:38Z</time>
      </trkpt>
      <trkpt lat="44.43047" lon="4.12012">
        <ele>327</ele>
        <time>2022-09-19T11:12:03Z</time>
      </trkpt>
      <trkpt lat="44.43056" lon="4.12021">
        <ele>328</ele>
        <time>2022-09-19T11:12:12Z</time>
      </trkpt>
      <trkpt lat="44.43072" lon="4.12024">
        <ele>330</ele>
        <time>2022-09-19T11:12:25Z</time>
      </trkpt>
      <trkpt lat="44.4309" lon="4.12022">
        <ele>331</ele>
        <time>2022-09-19T11:12:39Z</time>
      </trkpt>
      <trkpt lat="44.43107" lon="4.11964">
        <ele>334</ele>
        <time>2022-09-19T11:13:15Z</time>
      </trkpt>
      <trkpt lat="44.43118" lon="4.11952">
        <ele>335</ele>
        <time>2022-09-19T11:13:26Z</time>
      </trkpt>
      <trkpt lat="44.43142" lon="4.11938">
        <ele>337</ele>
        <time>2022-09-19T11:13:47Z</time>
      </trkpt>
      <trkpt lat="44.43167" lon="4.11912">
        <ele>339</ele>
        <time>2022-09-19T11:14:12Z</time>
      </trkpt>
      <trkpt lat="44.43204" lon="4.11839">
        <ele>337</ele>
        <time>2022-09-19T11:15:03Z</time>
      </trkpt>
      <trkpt lat="44.43216" lon="4.11778">
        <ele>338</ele>
        <time>2022-09-19T11:15:39Z</time>
      </trkpt>
      <trkpt lat="44.43225" lon="4.11762">
        <ele>339</ele>
        <time>2022-09-19T11:15:51Z</time>
      </trkpt>
      <trkpt lat="44.43235" lon="4.11718">
        <ele>341</ele>
        <time>2022-09-19T11:16:17Z</time>
      </trkpt>
      <trkpt lat="44.4325" lon="4.11677">
        <ele>343</ele>
        <time>2022-09-19T11:16:44Z</time>
      </trkpt>
      <trkpt lat="44.43253" lon="4.11645">
        <ele>344</ele>
        <time>2022-09-19T11:17:02Z</time>
      </trkpt>
      <trkpt lat="44.43247" lon="4.11614">
        <ele>346</ele>
        <time>2022-09-19T11:17:20Z</time>
      </trkpt>
      <trkpt lat="44.4325" lon="4.11593">
        <ele>347</ele>
        <time>2022-09-19T11:17:33Z</time>
      </trkpt>
      <trkpt lat="44.43288" lon="4.11437">
        <ele>348</ele>
        <time>2022-09-19T11:19:07Z</time>
      </trkpt>
      <trkpt lat="44.43291" lon="4.1139">
        <ele>351</ele>
        <time>2022-09-19T11:19:34Z</time>
      </trkpt>
      <trkpt lat="44.433" lon="4.1135">
        <ele>354</ele>
        <time>2022-09-19T11:19:58Z</time>
      </trkpt>
      <trkpt lat="44.43299" lon="4.11309">
        <ele>358</ele>
        <time>2022-09-19T11:20:21Z</time>
      </trkpt>
      <trkpt lat="44.43293" lon="4.11279">
        <ele>360</ele>
        <time>2022-09-19T11:20:39Z</time>
      </trkpt>
      <trkpt lat="44.43281" lon="4.11253">
        <ele>361</ele>
        <time>2022-09-19T11:20:57Z</time>
      </trkpt>
      <trkpt lat="44.43263" lon="4.11231">
        <ele>360</ele>
        <time>2022-09-19T11:21:16Z</time>
      </trkpt>
      <trkpt lat="44.43256" lon="4.11215">
        <ele>360</ele>
        <time>2022-09-19T11:21:27Z</time>
      </trkpt>
      <trkpt lat="44.43278" lon="4.11189">
        <ele>360</ele>
        <time>2022-09-19T11:21:50Z</time>
      </trkpt>
      <trkpt lat="44.43296" lon="4.11176">
        <ele>360</ele>
        <time>2022-09-19T11:22:06Z</time>
      </trkpt>
      <trkpt lat="44.43321" lon="4.11132">
        <ele>360</ele>
        <time>2022-09-19T11:22:38Z</time>
      </trkpt>
      <trkpt lat="44.43354" lon="4.11019">
        <ele>362</ele>
        <time>2022-09-19T11:23:48Z</time>
      </trkpt>
      <trkpt lat="44.43366" lon="4.10962">
        <ele>364</ele>
        <time>2022-09-19T11:24:22Z</time>
      </trkpt>
      <trkpt lat="44.43364" lon="4.10948">
        <ele>365</ele>
        <time>2022-09-19T11:24:30Z</time>
      </trkpt>
      <trkpt lat="44.43355" lon="4.10951">
        <ele>364</ele>
        <time>2022-09-19T11:24:37Z</time>
      </trkpt>
      <trkpt lat="44.43327" lon="4.1095">
        <ele>363</ele>
        <time>2022-09-19T11:25:00Z</time>
      </trkpt>
      <trkpt lat="44.4331" lon="4.10945">
        <ele>360</ele>
        <time>2022-09-19T11:25:14Z</time>
      </trkpt>
      <trkpt lat="44.43294" lon="4.10953">
        <ele>358</ele>
        <time>2022-09-19T11:25:27Z</time>
      </trkpt>
      <trkpt lat="44.43282" lon="4.10947">
        <ele>356</ele>
        <time>2022-09-19T11:25:37Z</time>
      </trkpt>
      <trkpt lat="44.43282" lon="4.10887">
        <ele>359</ele>
        <time>2022-09-19T11:26:12Z</time>
      </trkpt>
      <trkpt lat="44.43276" lon="4.10845">
        <ele>363</ele>
        <time>2022-09-19T11:26:36Z</time>
      </trkpt>
      <trkpt lat="44.43237" lon="4.10801">
        <ele>363</ele>
        <time>2022-09-19T11:27:16Z</time>
      </trkpt>
      <trkpt lat="44.43231" lon="4.10787">
        <ele>362</ele>
        <time>2022-09-19T11:27:26Z</time>
      </trkpt>
      <trkpt lat="44.4322" lon="4.10729">
        <ele>363</ele>
        <time>2022-09-19T11:28:00Z</time>
      </trkpt>
      <trkpt lat="44.43202" lon="4.10723">
        <ele>360</ele>
        <time>2022-09-19T11:28:15Z</time>
      </trkpt>
      <trkpt lat="44.4318" lon="4.10685">
        <ele>358</ele>
        <time>2022-09-19T11:28:43Z</time>
      </trkpt>
      <trkpt lat="44.43182" lon="4.10627">
        <ele>362</ele>
        <time>2022-09-19T11:29:16Z</time>
      </trkpt>
      <trkpt lat="44.43169" lon="4.10558">
        <ele>365</ele>
        <time>2022-09-19T11:29:57Z</time>
      </trkpt>
      <trkpt lat="44.43158" lon="4.10532">
        <ele>366</ele>
        <time>2022-09-19T11:30:14Z</time>
      </trkpt>
      <trkpt lat="44.43162" lon="4.10502">
        <ele>368</ele>
        <time>2022-09-19T11:30:32Z</time>
      </trkpt>
      <trkpt lat="44.43119" lon="4.10476">
        <ele>365</ele>
        <time>2022-09-19T11:31:09Z</time>
      </trkpt>
      <trkpt lat="44.43115" lon="4.1047">
        <ele>365</ele>
        <time>2022-09-19T11:31:14Z</time>
      </trkpt>
      <trkpt lat="44.4312" lon="4.10458">
        <ele>364</ele>
        <time>2022-09-19T11:31:22Z</time>
      </trkpt>
      <trkpt lat="44.43228" lon="4.10433">
        <ele>371</ele>
        <time>2022-09-19T11:32:49Z</time>
      </trkpt>
      <trkpt lat="44.43243" lon="4.10433">
        <ele>373</ele>
        <time>2022-09-19T11:33:01Z</time>
      </trkpt>
      <trkpt lat="44.43285" lon="4.10444">
        <ele>377</ele>
        <time>2022-09-19T11:33:36Z</time>
      </trkpt>
      <trkpt lat="44.43315" lon="4.10438">
        <ele>380</ele>
        <time>2022-09-19T11:34:00Z</time>
      </trkpt>
      <trkpt lat="44.43337" lon="4.10398">
        <ele>381</ele>
        <time>2022-09-19T11:34:29Z</time>
      </trkpt>
      <trkpt lat="44.43352" lon="4.1038">
        <ele>381</ele>
        <time>2022-09-19T11:34:44Z</time>
      </trkpt>
      <trkpt lat="44.43361" lon="4.10376">
        <ele>382</ele>
        <time>2022-09-19T11:34:52Z</time>
      </trkpt>
      <trkpt lat="44.4339" lon="4.10377">
        <ele>385</ele>
        <time>2022-09-19T11:35:15Z</time>
      </trkpt>
      <trkpt lat="44.43396" lon="4.10372">
        <ele>386</ele>
        <time>2022-09-19T11:35:21Z</time>
      </trkpt>
      <trkpt lat="44.43408" lon="4.10352">
        <ele>387</ele>
        <time>2022-09-19T11:35:36Z</time>
      </trkpt>
      <trkpt lat="44.43417" lon="4.10314">
        <ele>389</ele>
        <time>2022-09-19T11:35:59Z</time>
      </trkpt>
    </trkseg>
  </trk>
</gpx>